sensor_id;sensor_type;location;lat;lon;timestamp;temperature;humidity
5278;DHT22;2662;51.194;6.614;2022-07-03T00:00:00;20.10;99.90
5278;DHT22;2662;51.194;6.614;2022-07-03T00:02:26;20.00;99.90
5278;DHT22;2662;51.194;6.614;2022-07-03T00:04:53;20.00;99.90
5278;DHT22;2662;51.194;6.614;2022-07-03T00:07:20;19.90;99.90
5278;DHT22;2662;51.194;6.614;2022-07-03T00:09:49;19.90;99.90
5278;DHT22;2662;51.194;6.614;2022-07-03T00:12:16;19.80;99.90
5278;DHT22;2662;51.194;6.614;2022-07-03T00:14:43;19.80;99.90
5278;DHT22;2662;51.194;6.614;2022-07-03T00:17:09;19.80;99.90
5278;DHT22;2662;51.194;6.614;2022-07-03T00:19:36;19.80;99.90
5278;DHT22;2662;51.194;6.614;2022-07-03T00:22:04;19.80;99.90
5278;DHT22;2662;51.194;6.614;2022-07-03T00:24:36;19.80;99.90
5278;DHT22;2662;51.194;6.614;2022-07-03T00:27:08;19.90;99.90
5278;DHT22;2662;51.194;6.614;2022-07-03T00:29:37;19.90;99.90
5278;DHT22;2662;51.194;6.614;2022-07-03T00:32:07;19.90;99.90
5278;DHT22;2662;51.194;6.614;2022-07-03T00:34:34;20.00;99.90
5278;DHT22;2662;51.194;6.614;2022-07-03T00:37:02;20.10;99.90
5278;DHT22;2662;51.194;6.614;2022-07-03T00:39:29;20.20;99.90
5278;DHT22;2662;51.194;6.614;2022-07-03T00:42:01;20.30;99.90
5278;DHT22;2662;51.194;6.614;2022-07-03T00:44:29;20.30;99.90
5278;DHT22;2662;51.194;6.614;2022-07-03T00:46:58;20.30;99.90
5278;DHT22;2662;51.194;6.614;2022-07-03T00:49:25;20.30;99.90
5278;DHT22;2662;51.194;6.614;2022-07-03T00:51:52;20.20;99.90
5278;DHT22;2662;51.194;6.614;2022-07-03T00:54:21;20.20;99.90
5278;DHT22;2662;51.194;6.614;2022-07-03T00:56:51;20.00;99.90
5278;DHT22;2662;51.194;6.614;2022-07-03T00:59:18;20.00;99.90
5278;DHT22;2662;51.194;6.614;2022-07-03T01:01:47;19.90;99.90
5278;DHT22;2662;51.194;6.614;2022-07-03T01:04:24;19.70;99.90
5278;DHT22;2662;51.194;6.614;2022-07-03T01:06:54;19.60;99.90
5278;DHT22;2662;51.194;6.614;2022-07-03T01:09:36;19.50;99.90
5278;DHT22;2662;51.194;6.614;2022-07-03T01:12:07;19.40;99.90
5278;DHT22;2662;51.194;6.614;2022-07-03T01:14:43;19.30;99.90
5278;DHT22;2662;51.194;6.614;2022-07-03T01:17:22;19.30;99.90
5278;DHT22;2662;51.194;6.614;2022-07-03T01:19:57;19.30;99.90
5278;DHT22;2662;51.194;6.614;2022-07-03T01:22:30;19.20;99.90
5278;DHT22;2662;51.194;6.614;2022-07-03T01:25:17;19.20;99.90
5278;DHT22;2662;51.194;6.614;2022-07-03T01:27:56;19.20;99.90
5278;DHT22;2662;51.194;6.614;2022-07-03T01:30:24;19.20;99.90
5278;DHT22;2662;51.194;6.614;2022-07-03T01:32:57;19.30;99.90
5278;DHT22;2662;51.194;6.614;2022-07-03T01:35:32;19.20;99.90
5278;DHT22;2662;51.194;6.614;2022-07-03T01:38:02;19.10;99.90
5278;DHT22;2662;51.194;6.614;2022-07-03T01:40:32;19.00;99.90
5278;DHT22;2662;51.194;6.614;2022-07-03T01:43:02;19.00;99.90
5278;DHT22;2662;51.194;6.614;2022-07-03T01:45:31;18.90;99.90
5278;DHT22;2662;51.194;6.614;2022-07-03T01:47:58;18.90;99.90
5278;DHT22;2662;51.194;6.614;2022-07-03T01:50:26;18.80;99.90
5278;DHT22;2662;51.194;6.614;2022-07-03T01:52:54;18.70;99.90
5278;DHT22;2662;51.194;6.614;2022-07-03T01:55:23;18.60;99.90
5278;DHT22;2662;51.194;6.614;2022-07-03T01:57:50;18.60;99.90
5278;DHT22;2662;51.194;6.614;2022-07-03T02:00:20;18.60;99.90
5278;DHT22;2662;51.194;6.614;2022-07-03T02:02:54;18.60;99.90
5278;DHT22;2662;51.194;6.614;2022-07-03T02:05:30;18.60;99.90
5278;DHT22;2662;51.194;6.614;2022-07-03T02:08:03;18.60;99.90
5278;DHT22;2662;51.194;6.614;2022-07-03T02:10:33;18.60;99.90
5278;DHT22;2662;51.194;6.614;2022-07-03T02:13:07;18.70;99.90
5278;DHT22;2662;51.194;6.614;2022-07-03T02:15:38;18.60;99.90
5278;DHT22;2662;51.194;6.614;2022-07-03T02:18:11;18.70;99.90
5278;DHT22;2662;51.194;6.614;2022-07-03T02:20:40;18.60;99.90
5278;DHT22;2662;51.194;6.614;2022-07-03T02:23:11;18.70;99.90
5278;DHT22;2662;51.194;6.614;2022-07-03T02:25:41;18.60;99.90
5278;DHT22;2662;51.194;6.614;2022-07-03T02:28:21;18.60;99.90
5278;DHT22;2662;51.194;6.614;2022-07-03T02:30:55;18.60;99.90
5278;DHT22;2662;51.194;6.614;2022-07-03T02:33:25;18.50;99.90
5278;DHT22;2662;51.194;6.614;2022-07-03T02:35:55;18.40;99.90
5278;DHT22;2662;51.194;6.614;2022-07-03T02:38:24;18.40;99.90
5278;DHT22;2662;51.194;6.614;2022-07-03T02:40:57;18.30;99.90
5278;DHT22;2662;51.194;6.614;2022-07-03T02:43:34;18.30;99.90
5278;DHT22;2662;51.194;6.614;2022-07-03T02:46:06;18.30;99.90
5278;DHT22;2662;51.194;6.614;2022-07-03T02:48:50;18.30;99.90
5278;DHT22;2662;51.194;6.614;2022-07-03T02:51:21;18.30;99.90
5278;DHT22;2662;51.194;6.614;2022-07-03T02:53:56;18.20;99.90
5278;DHT22;2662;51.194;6.614;2022-07-03T02:56:32;18.20;99.90
5278;DHT22;2662;51.194;6.614;2022-07-03T02:59:09;18.20;99.90
5278;DHT22;2662;51.194;6.614;2022-07-03T03:01:46;18.10;99.90
5278;DHT22;2662;51.194;6.614;2022-07-03T03:04:19;18.00;99.90
5278;DHT22;2662;51.194;6.614;2022-07-03T03:06:53;18.00;99.90
5278;DHT22;2662;51.194;6.614;2022-07-03T03:09:24;17.90;99.90
5278;DHT22;2662;51.194;6.614;2022-07-03T03:11:56;17.90;99.90
5278;DHT22;2662;51.194;6.614;2022-07-03T03:14:30;17.90;99.90
5278;DHT22;2662;51.194;6.614;2022-07-03T03:17:05;17.90;99.90
5278;DHT22;2662;51.194;6.614;2022-07-03T03:19:34;17.90;99.90
5278;DHT22;2662;51.194;6.614;2022-07-03T03:24:50;17.80;99.90
5278;DHT22;2662;51.194;6.614;2022-07-03T03:27:17;17.70;99.90
5278;DHT22;2662;51.194;6.614;2022-07-03T03:29:45;17.70;99.90
5278;DHT22;2662;51.194;6.614;2022-07-03T03:32:14;17.70;99.90
5278;DHT22;2662;51.194;6.614;2022-07-03T03:34:43;17.60;99.90
5278;DHT22;2662;51.194;6.614;2022-07-03T03:37:10;17.60;99.90
5278;DHT22;2662;51.194;6.614;2022-07-03T03:39:37;17.60;99.90
5278;DHT22;2662;51.194;6.614;2022-07-03T03:42:05;17.60;99.90
5278;DHT22;2662;51.194;6.614;2022-07-03T03:44:32;17.60;99.90
5278;DHT22;2662;51.194;6.614;2022-07-03T03:46:58;17.60;99.90
5278;DHT22;2662;51.194;6.614;2022-07-03T03:49:27;17.60;99.90
5278;DHT22;2662;51.194;6.614;2022-07-03T03:51:54;17.60;99.90
5278;DHT22;2662;51.194;6.614;2022-07-03T03:54:21;17.60;99.90
5278;DHT22;2662;51.194;6.614;2022-07-03T03:56:48;17.70;99.90
5278;DHT22;2662;51.194;6.614;2022-07-03T03:59:15;17.70;99.90
5278;DHT22;2662;51.194;6.614;2022-07-03T04:01:42;17.70;99.90
5278;DHT22;2662;51.194;6.614;2022-07-03T04:04:09;17.80;99.90
5278;DHT22;2662;51.194;6.614;2022-07-03T04:06:38;17.90;99.90
5278;DHT22;2662;51.194;6.614;2022-07-03T04:09:05;18.00;99.90
5278;DHT22;2662;51.194;6.614;2022-07-03T04:11:32;18.10;99.90
5278;DHT22;2662;51.194;6.614;2022-07-03T04:13:59;18.20;99.90
5278;DHT22;2662;51.194;6.614;2022-07-03T04:16:25;18.30;99.90
5278;DHT22;2662;51.194;6.614;2022-07-03T04:18:52;18.60;99.90
5278;DHT22;2662;51.194;6.614;2022-07-03T04:21:19;18.70;99.90
5278;DHT22;2662;51.194;6.614;2022-07-03T04:23:47;18.90;99.90
5278;DHT22;2662;51.194;6.614;2022-07-03T04:26:14;18.90;99.90
5278;DHT22;2662;51.194;6.614;2022-07-03T04:28:40;19.10;99.90
5278;DHT22;2662;51.194;6.614;2022-07-03T04:31:07;19.20;99.90
5278;DHT22;2662;51.194;6.614;2022-07-03T04:33:34;19.40;99.90
5278;DHT22;2662;51.194;6.614;2022-07-03T04:36:01;19.50;99.90
5278;DHT22;2662;51.194;6.614;2022-07-03T04:38:27;19.60;99.90
5278;DHT22;2662;51.194;6.614;2022-07-03T04:40:55;19.70;99.90
5278;DHT22;2662;51.194;6.614;2022-07-03T04:43:22;19.80;99.90
5278;DHT22;2662;51.194;6.614;2022-07-03T04:45:49;19.80;99.90
5278;DHT22;2662;51.194;6.614;2022-07-03T04:48:16;19.90;99.90
5278;DHT22;2662;51.194;6.614;2022-07-03T04:50:42;19.90;99.90
5278;DHT22;2662;51.194;6.614;2022-07-03T04:53:09;19.80;99.90
5278;DHT22;2662;51.194;6.614;2022-07-03T04:55:36;19.80;99.90
5278;DHT22;2662;51.194;6.614;2022-07-03T04:58:04;19.70;99.90
5278;DHT22;2662;51.194;6.614;2022-07-03T05:00:31;19.70;99.90
5278;DHT22;2662;51.194;6.614;2022-07-03T05:02:58;19.70;99.90
5278;DHT22;2662;51.194;6.614;2022-07-03T05:05:25;19.70;99.90
5278;DHT22;2662;51.194;6.614;2022-07-03T05:07:52;19.70;99.90
5278;DHT22;2662;51.194;6.614;2022-07-03T05:10:19;19.70;99.90
5278;DHT22;2662;51.194;6.614;2022-07-03T05:12:46;19.70;99.90
5278;DHT22;2662;51.194;6.614;2022-07-03T05:15:14;19.80;99.90
5278;DHT22;2662;51.194;6.614;2022-07-03T05:17:41;19.80;99.90
5278;DHT22;2662;51.194;6.614;2022-07-03T05:20:08;19.90;99.90
5278;DHT22;2662;51.194;6.614;2022-07-03T05:22:50;20.00;99.90
5278;DHT22;2662;51.194;6.614;2022-07-03T05:25:18;20.10;99.90
5278;DHT22;2662;51.194;6.614;2022-07-03T05:27:45;20.20;99.90
5278;DHT22;2662;51.194;6.614;2022-07-03T05:30:14;20.30;99.90
5278;DHT22;2662;51.194;6.614;2022-07-03T05:32:40;20.40;99.90
5278;DHT22;2662;51.194;6.614;2022-07-03T05:35:08;20.60;99.90
5278;DHT22;2662;51.194;6.614;2022-07-03T05:37:35;21.70;99.90
5278;DHT22;2662;51.194;6.614;2022-07-03T05:40:03;23.80;99.90
5278;DHT22;2662;51.194;6.614;2022-07-03T05:42:30;25.70;99.90
5278;DHT22;2662;51.194;6.614;2022-07-03T05:44:56;27.50;99.90
5278;DHT22;2662;51.194;6.614;2022-07-03T05:47:24;29.30;99.90
5278;DHT22;2662;51.194;6.614;2022-07-03T05:49:51;30.90;99.90
5278;DHT22;2662;51.194;6.614;2022-07-03T05:52:18;32.00;98.50
5278;DHT22;2662;51.194;6.614;2022-07-03T05:54:45;33.20;95.30
5278;DHT22;2662;51.194;6.614;2022-07-03T05:57:12;33.60;93.30
5278;DHT22;2662;51.194;6.614;2022-07-03T05:59:38;34.00;91.70
5278;DHT22;2662;51.194;6.614;2022-07-03T06:02:05;34.20;89.10
5278;DHT22;2662;51.194;6.614;2022-07-03T06:04:33;33.80;85.60
5278;DHT22;2662;51.194;6.614;2022-07-03T06:07:00;33.20;85.70
5278;DHT22;2662;51.194;6.614;2022-07-03T06:09:27;34.30;84.90
5278;DHT22;2662;51.194;6.614;2022-07-03T06:11:53;35.20;82.00
5278;DHT22;2662;51.194;6.614;2022-07-03T06:14:20;35.20;80.50
5278;DHT22;2662;51.194;6.614;2022-07-03T06:16:47;35.50;79.20
5278;DHT22;2662;51.194;6.614;2022-07-03T06:19:13;36.50;77.30
5278;DHT22;2662;51.194;6.614;2022-07-03T06:21:42;37.10;74.30
5278;DHT22;2662;51.194;6.614;2022-07-03T06:24:10;37.00;72.90
5278;DHT22;2662;51.194;6.614;2022-07-03T06:26:37;37.00;70.90
5278;DHT22;2662;51.194;6.614;2022-07-03T06:29:04;37.10;69.40
5278;DHT22;2662;51.194;6.614;2022-07-03T06:31:30;37.50;69.00
5278;DHT22;2662;51.194;6.614;2022-07-03T06:33:58;38.40;67.10
5278;DHT22;2662;51.194;6.614;2022-07-03T06:36:24;39.10;65.40
5278;DHT22;2662;51.194;6.614;2022-07-03T06:38:53;39.50;63.00
5278;DHT22;2662;51.194;6.614;2022-07-03T06:41:20;39.90;61.70
5278;DHT22;2662;51.194;6.614;2022-07-03T06:43:47;39.60;60.40
5278;DHT22;2662;51.194;6.614;2022-07-03T06:46:14;39.70;60.10
5278;DHT22;2662;51.194;6.614;2022-07-03T06:48:41;39.70;58.90
5278;DHT22;2662;51.194;6.614;2022-07-03T06:51:07;39.80;58.70
5278;DHT22;2662;51.194;6.614;2022-07-03T06:53:34;40.10;58.10
5278;DHT22;2662;51.194;6.614;2022-07-03T06:56:02;39.90;57.30
5278;DHT22;2662;51.194;6.614;2022-07-03T06:58:29;40.00;57.10
5278;DHT22;2662;51.194;6.614;2022-07-03T07:00:56;40.60;56.20
5278;DHT22;2662;51.194;6.614;2022-07-03T07:03:22;41.10;55.10
5278;DHT22;2662;51.194;6.614;2022-07-03T07:05:49;40.80;54.10
5278;DHT22;2662;51.194;6.614;2022-07-03T07:08:16;40.00;54.20
5278;DHT22;2662;51.194;6.614;2022-07-03T07:10:43;38.60;54.60
5278;DHT22;2662;51.194;6.614;2022-07-03T07:13:11;39.10;55.00
5278;DHT22;2662;51.194;6.614;2022-07-03T07:15:37;38.80;54.60
5278;DHT22;2662;51.194;6.614;2022-07-03T07:18:04;39.40;54.70
5278;DHT22;2662;51.194;6.614;2022-07-03T07:20:31;40.40;53.30
5278;DHT22;2662;51.194;6.614;2022-07-03T07:22:58;41.40;53.00
5278;DHT22;2662;51.194;6.614;2022-07-03T07:25:25;41.70;52.20
5278;DHT22;2662;51.194;6.614;2022-07-03T07:27:51;41.70;52.50
5278;DHT22;2662;51.194;6.614;2022-07-03T07:30:20;41.70;50.60
5278;DHT22;2662;51.194;6.614;2022-07-03T07:32:46;41.20;51.20
5278;DHT22;2662;51.194;6.614;2022-07-03T07:35:13;41.20;50.20
5278;DHT22;2662;51.194;6.614;2022-07-03T07:37:40;41.20;49.90
5278;DHT22;2662;51.194;6.614;2022-07-03T07:40:08;41.70;49.90
5278;DHT22;2662;51.194;6.614;2022-07-03T07:42:35;41.20;48.40
5278;DHT22;2662;51.194;6.614;2022-07-03T07:45:02;41.50;48.90
5278;DHT22;2662;51.194;6.614;2022-07-03T07:47:30;41.40;50.00
5278;DHT22;2662;51.194;6.614;2022-07-03T07:49:57;42.10;49.30
5278;DHT22;2662;51.194;6.614;2022-07-03T07:52:23;42.90;48.20
5278;DHT22;2662;51.194;6.614;2022-07-03T07:54:50;42.00;48.30
5278;DHT22;2662;51.194;6.614;2022-07-03T07:57:17;41.80;47.80
5278;DHT22;2662;51.194;6.614;2022-07-03T07:59:44;41.80;48.70
5278;DHT22;2662;51.194;6.614;2022-07-03T08:02:10;42.00;48.20
5278;DHT22;2662;51.194;6.614;2022-07-03T08:04:56;42.20;48.20
5278;DHT22;2662;51.194;6.614;2022-07-03T08:07:40;42.00;47.30
5278;DHT22;2662;51.194;6.614;2022-07-03T08:10:07;41.80;47.10
5278;DHT22;2662;51.194;6.614;2022-07-03T08:12:34;42.00;47.60
5278;DHT22;2662;51.194;6.614;2022-07-03T08:15:01;41.40;47.00
5278;DHT22;2662;51.194;6.614;2022-07-03T08:17:28;41.40;47.90
5278;DHT22;2662;51.194;6.614;2022-07-03T08:19:56;41.30;46.80
5278;DHT22;2662;51.194;6.614;2022-07-03T08:22:22;41.70;46.70
5278;DHT22;2662;51.194;6.614;2022-07-03T08:24:49;41.40;47.10
5278;DHT22;2662;51.194;6.614;2022-07-03T08:27:16;41.20;47.30
5278;DHT22;2662;51.194;6.614;2022-07-03T08:29:43;41.10;47.20
5278;DHT22;2662;51.194;6.614;2022-07-03T08:32:10;41.20;46.70
5278;DHT22;2662;51.194;6.614;2022-07-03T08:34:37;40.40;47.00
5278;DHT22;2662;51.194;6.614;2022-07-03T08:37:05;40.60;47.40
5278;DHT22;2662;51.194;6.614;2022-07-03T08:39:32;40.60;48.00
5278;DHT22;2662;51.194;6.614;2022-07-03T08:41:59;40.50;47.60
5278;DHT22;2662;51.194;6.614;2022-07-03T08:44:27;40.70;47.30
5278;DHT22;2662;51.194;6.614;2022-07-03T08:46:55;39.80;47.40
5278;DHT22;2662;51.194;6.614;2022-07-03T08:49:22;40.20;48.50
5278;DHT22;2662;51.194;6.614;2022-07-03T08:51:50;40.70;48.20
5278;DHT22;2662;51.194;6.614;2022-07-03T08:54:19;40.20;47.60
5278;DHT22;2662;51.194;6.614;2022-07-03T08:56:46;40.30;47.70
5278;DHT22;2662;51.194;6.614;2022-07-03T08:59:13;39.60;47.90
5278;DHT22;2662;51.194;6.614;2022-07-03T09:01:41;39.80;49.40
5278;DHT22;2662;51.194;6.614;2022-07-03T09:04:10;39.60;48.40
5278;DHT22;2662;51.194;6.614;2022-07-03T09:06:39;39.60;48.90
5278;DHT22;2662;51.194;6.614;2022-07-03T09:09:07;39.20;49.80
5278;DHT22;2662;51.194;6.614;2022-07-03T09:11:36;38.40;50.10
5278;DHT22;2662;51.194;6.614;2022-07-03T09:14:03;37.90;51.00
5278;DHT22;2662;51.194;6.614;2022-07-03T09:16:33;37.70;51.10
5278;DHT22;2662;51.194;6.614;2022-07-03T09:19:00;37.90;50.60
5278;DHT22;2662;51.194;6.614;2022-07-03T09:21:35;38.00;50.30
5278;DHT22;2662;51.194;6.614;2022-07-03T09:24:03;38.20;50.50
5278;DHT22;2662;51.194;6.614;2022-07-03T09:26:31;38.30;49.50
5278;DHT22;2662;51.194;6.614;2022-07-03T09:28:59;37.90;50.40
5278;DHT22;2662;51.194;6.614;2022-07-03T09:31:26;37.00;51.00
5278;DHT22;2662;51.194;6.614;2022-07-03T09:33:56;37.00;51.50
5278;DHT22;2662;51.194;6.614;2022-07-03T09:36:37;37.00;50.60
5278;DHT22;2662;51.194;6.614;2022-07-03T09:39:14;37.00;51.90
5278;DHT22;2662;51.194;6.614;2022-07-03T09:41:54;36.80;51.90
5278;DHT22;2662;51.194;6.614;2022-07-03T09:44:34;36.80;52.50
5278;DHT22;2662;51.194;6.614;2022-07-03T09:47:12;37.40;51.90
5278;DHT22;2662;51.194;6.614;2022-07-03T09:49:45;37.50;51.40
5278;DHT22;2662;51.194;6.614;2022-07-03T09:52:26;38.20;51.20
5278;DHT22;2662;51.194;6.614;2022-07-03T09:54:54;37.90;51.30
5278;DHT22;2662;51.194;6.614;2022-07-03T09:57:21;37.40;51.20
5278;DHT22;2662;51.194;6.614;2022-07-03T10:00:08;36.80;51.60
5278;DHT22;2662;51.194;6.614;2022-07-03T10:02:35;36.60;52.80
5278;DHT22;2662;51.194;6.614;2022-07-03T10:05:11;36.70;52.10
5278;DHT22;2662;51.194;6.614;2022-07-03T10:07:50;37.40;52.10
5278;DHT22;2662;51.194;6.614;2022-07-03T10:10:18;37.70;51.50
5278;DHT22;2662;51.194;6.614;2022-07-03T10:12:45;37.30;50.70
5278;DHT22;2662;51.194;6.614;2022-07-03T10:15:14;36.50;51.30
5278;DHT22;2662;51.194;6.614;2022-07-03T10:17:42;36.20;52.10
5278;DHT22;2662;51.194;6.614;2022-07-03T10:20:10;36.20;52.90
5278;DHT22;2662;51.194;6.614;2022-07-03T10:22:40;36.20;51.90
5278;DHT22;2662;51.194;6.614;2022-07-03T10:25:08;35.80;52.20
5278;DHT22;2662;51.194;6.614;2022-07-03T10:27:36;36.20;52.80
5278;DHT22;2662;51.194;6.614;2022-07-03T10:30:03;36.40;52.60
5278;DHT22;2662;51.194;6.614;2022-07-03T10:32:32;36.40;52.60
5278;DHT22;2662;51.194;6.614;2022-07-03T10:35:00;36.50;52.90
5278;DHT22;2662;51.194;6.614;2022-07-03T10:37:38;36.70;52.80
5278;DHT22;2662;51.194;6.614;2022-07-03T10:40:12;37.00;52.10
5278;DHT22;2662;51.194;6.614;2022-07-03T10:43:05;36.20;52.10
5278;DHT22;2662;51.194;6.614;2022-07-03T10:46:09;35.90;52.40
5278;DHT22;2662;51.194;6.614;2022-07-03T10:48:53;35.70;53.30
5278;DHT22;2662;51.194;6.614;2022-07-03T10:51:22;35.20;52.00
5278;DHT22;2662;51.194;6.614;2022-07-03T10:53:49;34.90;53.20
5278;DHT22;2662;51.194;6.614;2022-07-03T10:56:16;34.30;53.20
5278;DHT22;2662;51.194;6.614;2022-07-03T10:58:56;33.90;54.60
5278;DHT22;2662;51.194;6.614;2022-07-03T11:01:26;33.50;55.00
5278;DHT22;2662;51.194;6.614;2022-07-03T11:03:56;33.20;54.40
5278;DHT22;2662;51.194;6.614;2022-07-03T11:09:30;32.20;56.10
5278;DHT22;2662;51.194;6.614;2022-07-03T11:11:57;31.60;55.60
5278;DHT22;2662;51.194;6.614;2022-07-03T11:14:24;31.20;56.70
5278;DHT22;2662;51.194;6.614;2022-07-03T11:17:18;31.30;57.40
5278;DHT22;2662;51.194;6.614;2022-07-03T11:19:48;30.90;57.10
5278;DHT22;2662;51.194;6.614;2022-07-03T11:22:41;30.60;58.80
5278;DHT22;2662;51.194;6.614;2022-07-03T11:25:12;30.60;58.50
5278;DHT22;2662;51.194;6.614;2022-07-03T11:27:39;30.60;58.70
5278;DHT22;2662;51.194;6.614;2022-07-03T11:30:07;30.80;59.20
5278;DHT22;2662;51.194;6.614;2022-07-03T11:32:47;30.60;59.50
5278;DHT22;2662;51.194;6.614;2022-07-03T11:35:51;30.60;58.60
5278;DHT22;2662;51.194;6.614;2022-07-03T11:38:27;30.50;58.90
5278;DHT22;2662;51.194;6.614;2022-07-03T11:40:56;30.20;59.10
5278;DHT22;2662;51.194;6.614;2022-07-03T11:43:23;30.10;58.40
5278;DHT22;2662;51.194;6.614;2022-07-03T11:45:50;30.20;59.40
5278;DHT22;2662;51.194;6.614;2022-07-03T11:48:18;30.30;58.30
5278;DHT22;2662;51.194;6.614;2022-07-03T11:50:46;30.70;59.40
5278;DHT22;2662;51.194;6.614;2022-07-03T11:55:57;30.80;57.70
5278;DHT22;2662;51.194;6.614;2022-07-03T11:58:25;30.60;57.30
5278;DHT22;2662;51.194;6.614;2022-07-03T12:00:53;30.50;58.50
5278;DHT22;2662;51.194;6.614;2022-07-03T12:03:25;30.50;61.00
5278;DHT22;2662;51.194;6.614;2022-07-03T12:05:54;30.40;59.30
5278;DHT22;2662;51.194;6.614;2022-07-03T12:08:32;30.10;59.60
5278;DHT22;2662;51.194;6.614;2022-07-03T12:11:02;29.90;59.20
5278;DHT22;2662;51.194;6.614;2022-07-03T12:13:29;29.80;60.30
5278;DHT22;2662;51.194;6.614;2022-07-03T12:16:08;29.70;61.40
5278;DHT22;2662;51.194;6.614;2022-07-03T12:18:52;29.90;63.00
5278;DHT22;2662;51.194;6.614;2022-07-03T12:21:20;29.70;61.30
5278;DHT22;2662;51.194;6.614;2022-07-03T12:23:51;29.70;62.20
5278;DHT22;2662;51.194;6.614;2022-07-03T12:26:28;29.80;61.40
5278;DHT22;2662;51.194;6.614;2022-07-03T12:28:57;29.60;61.20
5278;DHT22;2662;51.194;6.614;2022-07-03T12:31:24;29.40;63.30
5278;DHT22;2662;51.194;6.614;2022-07-03T12:33:52;29.60;61.90
5278;DHT22;2662;51.194;6.614;2022-07-03T12:36:19;29.30;61.50
5278;DHT22;2662;51.194;6.614;2022-07-03T12:38:49;29.20;63.90
5278;DHT22;2662;51.194;6.614;2022-07-03T12:41:17;29.60;63.20
5278;DHT22;2662;51.194;6.614;2022-07-03T12:43:46;29.90;61.40
5278;DHT22;2662;51.194;6.614;2022-07-03T12:46:17;29.80;62.60
5278;DHT22;2662;51.194;6.614;2022-07-03T12:48:45;29.40;62.20
5278;DHT22;2662;51.194;6.614;2022-07-03T12:51:12;29.20;63.50
5278;DHT22;2662;51.194;6.614;2022-07-03T12:53:39;29.10;63.50
5278;DHT22;2662;51.194;6.614;2022-07-03T12:56:10;29.30;63.60
5278;DHT22;2662;51.194;6.614;2022-07-03T12:58:39;29.50;63.70
5278;DHT22;2662;51.194;6.614;2022-07-03T13:01:28;29.70;62.40
5278;DHT22;2662;51.194;6.614;2022-07-03T13:03:55;29.60;61.80
5278;DHT22;2662;51.194;6.614;2022-07-03T13:06:23;29.40;62.80
5278;DHT22;2662;51.194;6.614;2022-07-03T13:08:54;29.20;62.20
5278;DHT22;2662;51.194;6.614;2022-07-03T13:11:33;29.20;63.20
5278;DHT22;2662;51.194;6.614;2022-07-03T13:14:05;29.00;64.00
5278;DHT22;2662;51.194;6.614;2022-07-03T13:16:36;29.30;63.40
5278;DHT22;2662;51.194;6.614;2022-07-03T13:19:05;29.50;64.30
5278;DHT22;2662;51.194;6.614;2022-07-03T13:21:32;29.50;63.50
5278;DHT22;2662;51.194;6.614;2022-07-03T13:23:59;29.90;63.60
5278;DHT22;2662;51.194;6.614;2022-07-03T13:26:25;30.30;63.60
5278;DHT22;2662;51.194;6.614;2022-07-03T13:28:54;30.70;62.70
5278;DHT22;2662;51.194;6.614;2022-07-03T13:31:21;30.50;60.80
5278;DHT22;2662;51.194;6.614;2022-07-03T13:33:47;30.50;61.50
5278;DHT22;2662;51.194;6.614;2022-07-03T13:36:14;30.60;62.50
5278;DHT22;2662;51.194;6.614;2022-07-03T13:38:43;30.70;61.60
5278;DHT22;2662;51.194;6.614;2022-07-03T13:41:10;30.50;61.10
5278;DHT22;2662;51.194;6.614;2022-07-03T13:43:37;30.20;62.00
5278;DHT22;2662;51.194;6.614;2022-07-03T13:46:05;29.60;63.10
5278;DHT22;2662;51.194;6.614;2022-07-03T13:48:32;29.30;63.50
5278;DHT22;2662;51.194;6.614;2022-07-03T13:50:59;29.30;64.90
5278;DHT22;2662;51.194;6.614;2022-07-03T13:53:26;29.20;64.10
5278;DHT22;2662;51.194;6.614;2022-07-03T13:55:54;29.20;64.90
5278;DHT22;2662;51.194;6.614;2022-07-03T13:58:22;29.50;66.20
5278;DHT22;2662;51.194;6.614;2022-07-03T14:00:49;29.70;65.00
5278;DHT22;2662;51.194;6.614;2022-07-03T14:03:17;29.70;65.50
5278;DHT22;2662;51.194;6.614;2022-07-03T14:05:43;30.10;64.30
5278;DHT22;2662;51.194;6.614;2022-07-03T14:08:10;30.00;65.00
5278;DHT22;2662;51.194;6.614;2022-07-03T14:10:38;29.80;65.90
5278;DHT22;2662;51.194;6.614;2022-07-03T14:13:05;30.00;64.80
5278;DHT22;2662;51.194;6.614;2022-07-03T14:15:33;29.60;63.80
5278;DHT22;2662;51.194;6.614;2022-07-03T14:17:59;29.40;64.70
5278;DHT22;2662;51.194;6.614;2022-07-03T14:20:29;29.20;65.00
5278;DHT22;2662;51.194;6.614;2022-07-03T14:22:56;29.40;65.90
5278;DHT22;2662;51.194;6.614;2022-07-03T14:25:23;29.30;64.00
5278;DHT22;2662;51.194;6.614;2022-07-03T14:27:50;29.20;64.10
5278;DHT22;2662;51.194;6.614;2022-07-03T14:30:34;29.10;64.10
5278;DHT22;2662;51.194;6.614;2022-07-03T14:33:18;29.00;64.30
5278;DHT22;2662;51.194;6.614;2022-07-03T14:35:47;29.30;64.10
5278;DHT22;2662;51.194;6.614;2022-07-03T14:38:13;29.20;65.10
5278;DHT22;2662;51.194;6.614;2022-07-03T14:40:40;29.10;64.60
5278;DHT22;2662;51.194;6.614;2022-07-03T14:43:07;29.00;64.70
5278;DHT22;2662;51.194;6.614;2022-07-03T14:45:34;28.70;63.80
5278;DHT22;2662;51.194;6.614;2022-07-03T14:48:00;28.80;65.20
5278;DHT22;2662;51.194;6.614;2022-07-03T14:50:27;29.10;65.30
5278;DHT22;2662;51.194;6.614;2022-07-03T14:52:55;29.30;63.40
5278;DHT22;2662;51.194;6.614;2022-07-03T14:55:29;29.20;62.60
5278;DHT22;2662;51.194;6.614;2022-07-03T14:58:03;29.20;62.30
5278;DHT22;2662;51.194;6.614;2022-07-03T15:00:33;29.00;63.50
5278;DHT22;2662;51.194;6.614;2022-07-03T15:03:05;28.90;63.70
5278;DHT22;2662;51.194;6.614;2022-07-03T15:05:33;28.80;64.40
5278;DHT22;2662;51.194;6.614;2022-07-03T15:08:11;28.40;64.40
5278;DHT22;2662;51.194;6.614;2022-07-03T15:10:41;27.90;65.60
5278;DHT22;2662;51.194;6.614;2022-07-03T15:13:08;27.90;66.50
5278;DHT22;2662;51.194;6.614;2022-07-03T15:15:38;28.00;66.70
5278;DHT22;2662;51.194;6.614;2022-07-03T15:18:06;27.90;65.70
5278;DHT22;2662;51.194;6.614;2022-07-03T15:20:36;27.80;65.80
5278;DHT22;2662;51.194;6.614;2022-07-03T15:23:05;27.70;66.50
5278;DHT22;2662;51.194;6.614;2022-07-03T15:25:35;27.70;66.70
5278;DHT22;2662;51.194;6.614;2022-07-03T15:28:02;27.80;67.90
5278;DHT22;2662;51.194;6.614;2022-07-03T15:30:29;28.10;67.20
5278;DHT22;2662;51.194;6.614;2022-07-03T15:32:57;28.00;67.30
5278;DHT22;2662;51.194;6.614;2022-07-03T15:35:24;27.70;68.20
5278;DHT22;2662;51.194;6.614;2022-07-03T15:38:11;27.70;68.70
5278;DHT22;2662;51.194;6.614;2022-07-03T15:40:46;27.80;70.30
5278;DHT22;2662;51.194;6.614;2022-07-03T15:43:26;28.10;68.30
5278;DHT22;2662;51.194;6.614;2022-07-03T15:46:01;28.10;68.20
5278;DHT22;2662;51.194;6.614;2022-07-03T15:48:34;28.00;68.20
5278;DHT22;2662;51.194;6.614;2022-07-03T15:51:13;28.00;68.10
5278;DHT22;2662;51.194;6.614;2022-07-03T15:53:44;27.60;66.80
5278;DHT22;2662;51.194;6.614;2022-07-03T15:56:13;27.50;66.60
5278;DHT22;2662;51.194;6.614;2022-07-03T15:58:48;27.50;66.30
5278;DHT22;2662;51.194;6.614;2022-07-03T16:01:17;27.50;67.20
5278;DHT22;2662;51.194;6.614;2022-07-03T16:04:06;27.60;67.20
5278;DHT22;2662;51.194;6.614;2022-07-03T16:06:34;27.30;67.20
5278;DHT22;2662;51.194;6.614;2022-07-03T16:09:04;27.30;67.90
5278;DHT22;2662;51.194;6.614;2022-07-03T16:11:31;27.40;67.50
5278;DHT22;2662;51.194;6.614;2022-07-03T16:14:00;27.50;67.90
5278;DHT22;2662;51.194;6.614;2022-07-03T16:16:30;27.40;67.50
5278;DHT22;2662;51.194;6.614;2022-07-03T16:19:01;27.40;68.60
5278;DHT22;2662;51.194;6.614;2022-07-03T16:21:29;27.30;67.40
5278;DHT22;2662;51.194;6.614;2022-07-03T16:23:58;27.30;66.50
5278;DHT22;2662;51.194;6.614;2022-07-03T16:26:28;27.10;66.00